Time;durP1;ratioP1;P1;durP2;ratioP2;P2;SDS_P1;SDS_P2;PMS_P1;PMS_P2;Temp;Humidity;BMP_temperature;BMP_pressure;BME280_temperature;BME280_humidity;BME280_pressure;Samples;Min_cycle;Max_cycle;Signal;HPM_P1;HPM_P2
2021/07/22 00:01:28;;;;;;;13.40;7.10;;;20.60;99.90;;;;;;5062224;28;20219;-81
2021/07/22 00:03:54;;;;;;;7.70;5.50;;;20.60;99.90;;;;;;5045309;28;20437;-80
2021/07/22 00:06:20;;;;;;;8.50;5.80;;;20.60;99.90;;;;;;5076355;28;20181;-82
2021/07/22 00:08:45;;;;;;;9.43;6.10;;;20.60;99.90;;;;;;5048088;28;20466;-81
2021/07/22 00:11:11;;;;;;;10.83;5.83;;;20.60;99.90;;;;;;5047498;28;20183;-81
2021/07/22 00:13:36;;;;;;;9.50;5.63;;;20.60;99.90;;;;;;5030091;28;20196;-81
2021/07/22 00:16:02;;;;;;;11.03;6.17;;;20.60;99.90;;;;;;5046835;28;20184;-81
2021/07/22 00:18:29;;;;;;;9.10;5.63;;;20.60;99.90;;;;;;5065037;28;20178;-81
2021/07/22 00:20:55;;;;;;;7.97;5.63;;;20.60;99.90;;;;;;5045903;28;20188;-80
2021/07/22 00:23:20;;;;;;;11.40;6.30;;;20.60;99.90;;;;;;5045345;28;20484;-81
2021/07/22 00:25:46;;;;;;;7.90;5.60;;;20.60;99.90;;;;;;5064566;28;20225;-82
2021/07/22 00:28:12;;;;;;;11.03;5.97;;;20.60;99.90;;;;;;5063047;28;20254;-81
2021/07/22 00:30:41;;;;;;;11.73;6.67;;;20.60;99.90;;;;;;5046780;28;20607;-81
2021/07/22 00:33:06;;;;;;;8.63;5.90;;;20.60;99.90;;;;;;5046042;28;20870;-80
2021/07/22 00:35:32;;;;;;;9.93;6.03;;;20.50;99.90;;;;;;5063324;28;20462;-81
2021/07/22 00:37:57;;;;;;;8.33;5.93;;;20.50;99.90;;;;;;5063146;28;20180;-81
2021/07/22 00:40:23;;;;;;;7.37;4.97;;;20.50;99.90;;;;;;5044715;28;20208;-81
2021/07/22 00:42:59;;;;;;;8.07;6.53;;;20.50;99.90;;;;;;5062191;28;20228;-82
2021/07/22 00:45:24;;;;;;;25.83;6.60;;;20.50;99.90;;;;;;5028596;28;20301;-80
2021/07/22 00:47:51;;;;;;;8.70;5.50;;;20.50;99.90;;;;;;5045605;28;20543;-81
2021/07/22 00:50:16;;;;;;;10.27;7.20;;;20.50;99.90;;;;;;5063398;28;20458;-82
2021/07/22 00:52:43;;;;;;;9.03;5.70;;;20.50;99.90;;;;;;5045468;28;20542;-81
2021/07/22 00:55:08;;;;;;;13.87;6.03;;;20.50;99.90;;;;;;5063617;28;20434;-81
2021/07/22 00:57:34;;;;;;;9.13;5.70;;;20.50;99.90;;;;;;5045016;28;20801;-80
2021/07/22 00:59:59;;;;;;;13.03;7.93;;;20.50;99.90;;;;;;5044115;28;20640;-80
2021/07/22 01:02:25;;;;;;;11.50;6.70;;;20.50;99.90;;;;;;5043804;28;20285;-81
2021/07/22 01:04:50;;;;;;;11.57;6.90;;;20.50;99.90;;;;;;5061374;28;20191;-81
2021/07/22 01:07:16;;;;;;;11.87;5.57;;;20.50;99.90;;;;;;5061004;28;20635;-80
2021/07/22 01:09:41;;;;;;;8.77;6.10;;;20.50;99.90;;;;;;5025951;28;20286;-80
2021/07/22 01:12:07;;;;;;;11.33;6.30;;;20.40;99.90;;;;;;5058918;28;20196;-80
2021/07/22 01:14:32;;;;;;;8.20;5.60;;;20.40;99.90;;;;;;5059093;28;20592;-82
2021/07/22 01:16:58;;;;;;;13.60;6.13;;;20.40;99.90;;;;;;5058625;28;20604;-81
2021/07/22 01:19:23;;;;;;;11.97;5.80;;;20.40;99.90;;;;;;5058478;28;20307;-81
2021/07/22 01:21:49;;;;;;;8.80;6.00;;;20.40;99.90;;;;;;5059994;28;20179;-81
2021/07/22 01:24:14;;;;;;;12.13;6.83;;;20.40;99.90;;;;;;5063952;28;20288;-81
2021/07/22 01:26:40;;;;;;;11.10;6.57;;;20.40;99.90;;;;;;5064093;28;20229;-81
2021/07/22 01:29:05;;;;;;;9.90;6.27;;;20.30;99.90;;;;;;5044676;28;20670;-81
2021/07/22 01:31:31;;;;;;;10.77;7.03;;;20.30;99.90;;;;;;5061996;28;20254;-81
2021/07/22 01:33:57;;;;;;;11.30;6.23;;;20.30;99.90;;;;;;5060525;28;20191;-81
2021/07/22 01:36:23;;;;;;;10.83;6.13;;;20.30;99.90;;;;;;5060537;28;20200;-81
2021/07/22 01:38:51;;;;;;;11.97;6.43;;;20.30;99.90;;;;;;5042823;28;20180;-81
2021/07/22 01:41:16;;;;;;;10.53;6.17;;;20.30;99.90;;;;;;5043315;28;20502;-82
2021/07/22 01:43:42;;;;;;;10.27;6.50;;;20.30;99.90;;;;;;5062568;28;20481;-82
2021/07/22 01:46:07;;;;;;;8.63;5.87;;;20.30;99.90;;;;;;5063281;28;20247;-81
2021/07/22 01:48:33;;;;;;;7.13;5.20;;;20.30;99.90;;;;;;5030533;28;20643;-81
2021/07/22 01:50:58;;;;;;;11.97;5.83;;;20.20;99.90;;;;;;5045391;28;20219;-83
2021/07/22 01:53:24;;;;;;;12.90;6.47;;;20.20;99.90;;;;;;5046246;28;20206;-82
2021/07/22 01:55:49;;;;;;;10.40;6.37;;;20.10;99.90;;;;;;5050593;28;20175;-81
2021/07/22 01:58:15;;;;;;;10.37;6.03;;;20.20;99.90;;;;;;5069844;28;20171;-80
2021/07/22 02:00:41;;;;;;;8.07;5.80;;;20.30;99.90;;;;;;5066917;28;20187;-82
2021/07/22 02:03:06;;;;;;;11.20;5.90;;;20.20;99.90;;;;;;5065498;28;20187;-82
2021/07/22 02:05:32;;;;;;;11.50;6.10;;;20.20;99.90;;;;;;5066063;28;20203;-81
2021/07/22 02:07:58;;;;;;;9.97;6.40;;;20.10;99.90;;;;;;5048269;28;20186;-81
2021/07/22 02:10:23;;;;;;;9.60;6.50;;;20.10;99.90;;;;;;5065691;28;20211;-81
2021/07/22 02:12:49;;;;;;;8.73;6.40;;;20.10;99.90;;;;;;5030789;28;20964;-81
2021/07/22 02:15:14;;;;;;;12.70;6.17;;;20.20;99.90;;;;;;5047508;28;20175;-80
2021/07/22 02:17:40;;;;;;;10.60;6.10;;;20.20;99.90;;;;;;5047081;28;20191;-80
2021/07/22 02:20:06;;;;;;;7.53;5.50;;;20.20;99.90;;;;;;5047598;28;20194;-81
2021/07/22 02:22:32;;;;;;;10.07;6.30;;;20.20;99.90;;;;;;5064293;28;20216;-81
2021/07/22 02:24:57;;;;;;;8.80;5.97;;;20.30;99.90;;;;;;5063471;28;20411;-81
2021/07/22 02:27:23;;;;;;;11.40;6.50;;;20.20;99.90;;;;;;5044746;28;20229;-82
2021/07/22 02:29:49;;;;;;;8.60;5.77;;;20.10;99.90;;;;;;5045589;28;20231;-81
2021/07/22 02:32:14;;;;;;;10.13;5.70;;;20.20;99.90;;;;;;5063581;28;20192;-81
2021/07/22 02:34:40;;;;;;;9.90;6.30;;;20.20;99.90;;;;;;5062987;28;20251;-82
2021/07/22 02:37:05;;;;;;;9.53;6.70;;;20.00;99.90;;;;;;5064071;28;20178;-82
2021/07/22 02:39:31;;;;;;;9.07;5.97;;;20.10;99.90;;;;;;5064386;28;20313;-81
2021/07/22 02:41:57;;;;;;;11.37;5.80;;;20.10;99.90;;;;;;5047683;28;20183;-81
2021/07/22 02:44:23;;;;;;;8.77;5.90;;;20.10;99.90;;;;;;5065296;28;20501;-82
2021/07/22 02:46:48;;;;;;;8.43;6.20;;;20.10;99.90;;;;;;5064174;28;20199;-82
2021/07/22 02:49:14;;;;;;;9.70;6.53;;;20.20;99.90;;;;;;5064074;28;20210;-81
2021/07/22 02:51:39;;;;;;;14.73;6.70;;;20.20;99.90;;;;;;5062904;28;20205;-81
2021/07/22 02:54:05;;;;;;;7.60;6.00;;;20.20;99.90;;;;;;5062737;28;20203;-82
2021/07/22 02:56:30;;;;;;;8.87;6.20;;;20.20;99.90;;;;;;5062143;28;20593;-82
2021/07/22 02:58:56;;;;;;;8.37;6.20;;;20.20;99.90;;;;;;5062751;28;20207;-81
2021/07/22 03:01:21;;;;;;;10.03;6.40;;;20.20;99.90;;;;;;5028705;28;20749;-81
2021/07/22 03:03:47;;;;;;;7.80;4.90;;;20.20;99.90;;;;;;5063411;28;20229;-81
2021/07/22 03:06:15;;;;;;;11.60;6.90;;;20.20;99.90;;;;;;5046072;28;20184;-81
2021/07/22 03:08:41;;;;;;;8.90;5.80;;;20.20;99.90;;;;;;5044154;28;20195;-80
2021/07/22 03:11:10;;;;;;;13.40;6.40;;;20.20;99.90;;;;;;5061674;28;20440;-81
2021/07/22 03:13:36;;;;;;;8.40;5.40;;;20.20;99.90;;;;;;5062334;28;20218;-82
2021/07/22 03:16:02;;;;;;;9.23;6.27;;;20.20;99.90;;;;;;5063938;28;20987;-82
2021/07/22 03:18:28;;;;;;;7.00;5.07;;;20.10;99.90;;;;;;5054247;28;20407;-82
2021/07/22 03:20:53;;;;;;;9.00;5.97;;;20.20;99.90;;;;;;5074722;28;20202;-81
2021/07/22 03:23:19;;;;;;;10.33;5.90;;;20.20;99.90;;;;;;5040461;28;20199;-81
2021/07/22 03:25:45;;;;;;;9.70;5.40;;;20.10;99.90;;;;;;5041948;28;20270;-82
2021/07/22 03:28:11;;;;;;;9.67;5.67;;;20.10;99.90;;;;;;5024834;28;20598;-82
2021/07/22 03:30:36;;;;;;;9.10;5.73;;;20.10;99.90;;;;;;5059947;28;20457;-82
2021/07/22 03:33:02;;;;;;;11.07;6.30;;;20.10;99.90;;;;;;5041124;28;20217;-81
2021/07/22 03:35:27;;;;;;;8.00;5.13;;;20.20;99.90;;;;;;5027125;28;20212;-81
2021/07/22 03:37:53;;;;;;;9.93;5.40;;;20.10;99.90;;;;;;5058954;28;20180;-81
2021/07/22 03:40:18;;;;;;;7.67;5.57;;;20.10;99.90;;;;;;5057784;28;20179;-81
2021/07/22 03:42:44;;;;;;;8.50;5.23;;;20.10;99.90;;;;;;5057506;28;20575;-81
2021/07/22 03:45:10;;;;;;;6.73;5.70;;;20.20;99.90;;;;;;5061536;28;20503;-81
2021/07/22 03:47:35;;;;;;;9.10;5.80;;;20.20;99.90;;;;;;5060545;28;20202;-81
2021/07/22 03:50:02;;;;;;;9.83;6.43;;;20.10;99.90;;;;;;5060973;28;20493;-80
2021/07/22 03:52:28;;;;;;;11.47;6.10;;;20.10;99.90;;;;;;5060122;28;20187;-81
2021/07/22 03:54:53;;;;;;;8.33;5.53;;;20.10;99.90;;;;;;5059144;28;20486;-81
2021/07/22 03:57:19;;;;;;;10.73;6.20;;;20.10;99.90;;;;;;5060576;28;20174;-81
2021/07/22 03:59:44;;;;;;;8.53;5.87;;;20.20;99.90;;;;;;5042385;28;20175;-80
2021/07/22 04:02:10;;;;;;;8.70;6.37;;;20.30;99.90;;;;;;5041625;28;20261;-81
2021/07/22 04:04:35;;;;;;;16.67;6.67;;;20.30;99.90;;;;;;5042155;28;20191;-81
2021/07/22 04:07:01;;;;;;;11.67;7.10;;;20.30;99.90;;;;;;5061031;28;20543;-79
2021/07/22 04:09:26;;;;;;;10.83;7.30;;;20.30;99.90;;;;;;5059453;28;20199;-80
2021/07/22 04:11:52;;;;;;;8.40;6.03;;;20.30;99.90;;;;;;5059085;28;20168;-80
2021/07/22 04:14:17;;;;;;;11.93;7.37;;;20.30;99.90;;;;;;5040496;28;20168;-80
2021/07/22 04:16:44;;;;;;;11.53;7.00;;;20.30;99.90;;;;;;5065764;28;20188;-81
2021/07/22 04:19:10;;;;;;;11.13;7.10;;;20.40;99.90;;;;;;5051720;28;20172;-81
2021/07/22 04:21:36;;;;;;;14.03;7.43;;;20.30;99.90;;;;;;5066960;28;20411;-81
2021/07/22 04:24:01;;;;;;;11.73;7.30;;;20.30;99.90;;;;;;5065126;28;20199;-82
2021/07/22 04:26:27;;;;;;;11.23;7.73;;;20.30;99.90;;;;;;5064663;28;20179;-81
2021/07/22 04:28:52;;;;;;;8.83;6.33;;;20.30;99.90;;;;;;5065227;28;20276;-81
2021/07/22 04:31:18;;;;;;;11.90;7.27;;;20.40;99.90;;;;;;5049994;28;20256;-81
2021/07/22 04:33:45;;;;;;;13.33;6.93;;;20.40;99.90;;;;;;5033080;28;20291;-82
2021/07/22 04:36:11;;;;;;;14.43;8.03;;;20.40;99.90;;;;;;5067197;28;20173;-81
2021/07/22 04:38:39;;;;;;;16.90;8.23;;;20.40;99.90;;;;;;5065990;28;20418;-81
2021/07/22 04:41:05;;;;;;;10.77;7.70;;;20.50;99.90;;;;;;5061647;28;20164;-82
2021/07/22 04:43:31;;;;;;;13.77;8.27;;;20.50;99.90;;;;;;5060949;28;20999;-82
2021/07/22 04:46:04;;;;;;;13.80;7.70;;;20.50;99.90;;;;;;5045812;28;20181;-81
2021/07/22 04:48:30;;;;;;;11.10;7.13;;;20.60;99.90;;;;;;5073005;28;20524;-80
2021/07/22 04:50:56;;;;;;;9.80;6.67;;;20.50;99.90;;;;;;5045323;28;20483;-81
2021/07/22 04:53:22;;;;;;;10.13;6.43;;;20.60;99.90;;;;;;5061257;28;20476;-82
2021/07/22 04:55:48;;;;;;;13.63;8.37;;;20.60;99.90;;;;;;5049894;28;20418;-82
2021/07/22 04:58:13;;;;;;;14.10;7.60;;;20.60;99.90;;;;;;5059802;28;20608;-82
2021/07/22 05:00:39;;;;;;;12.97;7.40;;;20.60;99.90;;;;;;5059287;28;20283;-81
2021/07/22 05:03:04;;;;;;;13.97;7.93;;;20.60;99.90;;;;;;5042181;28;20214;-81
2021/07/22 05:05:30;;;;;;;13.17;8.10;;;20.70;99.90;;;;;;5079395;28;20168;-81
2021/07/22 05:07:59;;;;;;;13.47;7.93;;;20.70;99.90;;;;;;5081761;28;20184;-81
2021/07/22 05:10:24;;;;;;;12.20;7.13;;;20.70;99.90;;;;;;5079362;28;20461;-81
2021/07/22 05:12:57;;;;;;;9.97;7.27;;;20.80;99.90;;;;;;5061965;28;20438;-82
2021/07/22 05:15:23;;;;;;;15.40;7.97;;;20.70;99.90;;;;;;5079007;28;20168;-80
2021/07/22 05:17:48;;;;;;;15.43;7.90;;;20.80;99.90;;;;;;5059336;28;20421;-80
2021/07/22 05:20:14;;;;;;;11.50;7.40;;;20.70;99.90;;;;;;5050990;28;20187;-80
2021/07/22 05:22:39;;;;;;;11.30;6.57;;;20.90;99.90;;;;;;5032761;28;20205;-81
2021/07/22 05:25:05;;;;;;;8.53;6.57;;;20.90;99.90;;;;;;5076701;28;20191;-81
2021/07/22 05:27:34;;;;;;;10.00;7.33;;;20.80;99.90;;;;;;5075791;28;20210;-80
2021/07/22 05:30:00;;;;;;;12.70;6.27;;;20.30;99.90;;;;;;5060831;28;20225;-81
2021/07/22 05:32:25;;;;;;;12.57;7.77;;;19.80;99.90;;;;;;5079892;28;20432;-80
2021/07/22 05:34:51;;;;;;;11.30;7.77;;;19.80;99.90;;;;;;5080987;28;20173;-81
2021/07/22 05:37:17;;;;;;;10.10;7.07;;;20.10;99.90;;;;;;5077948;28;20169;-80
2021/07/22 05:39:42;;;;;;;12.20;7.03;;;20.10;99.90;;;;;;5077868;28;20168;-80
2021/07/22 05:42:08;;;;;;;16.33;7.90;;;20.10;99.90;;;;;;5079596;28;20206;-80
2021/07/22 05:44:33;;;;;;;10.30;6.57;;;20.20;99.90;;;;;;5065799;28;20174;-80
2021/07/22 05:46:59;;;;;;;11.20;7.73;;;20.00;99.90;;;;;;5082399;28;20696;-79
2021/07/22 05:49:24;;;;;;;11.57;7.40;;;19.60;99.90;;;;;;5083719;28;20291;-81
2021/07/22 05:51:50;;;;;;;16.97;7.57;;;19.60;99.90;;;;;;5062858;28;20186;-80
2021/07/22 05:54:15;;;;;;;10.37;6.47;;;19.80;99.90;;;;;;5046562;28;20606;-82
2021/07/22 05:56:41;;;;;;;14.27;7.47;;;19.80;99.90;;;;;;5080866;28;20184;-81
2021/07/22 05:59:06;;;;;;;13.20;6.90;;;20.10;99.90;;;;;;5059882;28;20591;-82
2021/07/22 06:01:32;;;;;;;10.40;7.23;;;20.00;99.90;;;;;;5078359;28;20208;-82
2021/07/22 06:03:57;;;;;;;13.57;8.30;;;20.30;99.90;;;;;;5079162;28;20211;-81
2021/07/22 06:06:23;;;;;;;11.30;7.43;;;20.60;99.90;;;;;;5081548;28;20230;-82
2021/07/22 06:08:49;;;;;;;13.90;9.13;;;20.50;99.90;;;;;;5082923;28;20201;-81
2021/07/22 06:11:15;;;;;;;14.30;6.93;;;20.50;99.90;;;;;;5083323;28;20236;-81
2021/07/22 06:13:41;;;;;;;11.70;7.30;;;20.50;99.90;;;;;;5065926;28;20447;-82
2021/07/22 06:16:12;;;;;;;13.13;7.50;;;20.30;99.90;;;;;;5078359;28;20410;-80
2021/07/22 06:18:41;;;;;;;9.60;6.33;;;20.60;99.90;;;;;;5079118;28;20436;-78
2021/07/22 06:21:10;;;;;;;8.63;5.30;;;20.70;99.90;;;;;;5080122;28;20830;-82
2021/07/22 06:23:36;;;;;;;9.50;6.80;;;21.00;99.90;;;;;;5078396;28;20445;-78
2021/07/22 06:26:02;;;;;;;10.67;7.10;;;21.20;99.90;;;;;;5076873;28;20418;-80
2021/07/22 06:28:28;;;;;;;10.20;6.88;;;21.40;99.90;;;;;;5058860;28;20940;-80
2021/07/22 06:30:54;;;;;;;12.37;6.83;;;21.50;99.90;;;;;;5057872;28;20422;-79
2021/07/22 06:33:20;;;;;;;9.87;6.20;;;21.70;99.90;;;;;;5070279;28;20185;-81
2021/07/22 06:35:46;;;;;;;9.57;5.93;;;21.90;99.90;;;;;;5068208;28;20472;-78
2021/07/22 06:38:12;;;;;;;8.87;5.83;;;21.90;99.90;;;;;;5058842;28;20414;-80
2021/07/22 06:40:38;;;;;;;10.57;7.03;;;22.00;99.90;;;;;;5076283;28;20175;-81
2021/07/22 06:43:03;;;;;;;11.03;6.63;;;22.30;99.90;;;;;;5075379;28;20466;-82
2021/07/22 06:45:29;;;;;;;8.23;5.20;;;22.30;99.90;;;;;;5055439;28;20624;-79
2021/07/22 06:47:54;;;;;;;11.63;8.07;;;22.30;99.90;;;;;;5064132;28;21428;-80
2021/07/22 06:50:20;;;;;;;9.43;5.90;;;22.50;99.90;;;;;;5069864;28;20211;-79
2021/07/22 06:52:46;;;;;;;9.50;6.27;;;22.60;99.90;;;;;;5073117;28;20558;-79
2021/07/22 06:55:11;;;;;;;13.60;6.93;;;22.70;99.90;;;;;;5050709;28;20483;-78
2021/07/22 06:57:37;;;;;;;9.73;6.80;;;22.80;99.90;;;;;;5036588;28;20214;-79
2021/07/22 07:00:06;;;;;;;9.20;6.77;;;22.60;99.90;;;;;;5057697;28;20176;-79
2021/07/22 07:02:31;;;;;;;13.53;6.70;;;22.50;99.90;;;;;;5058159;28;20203;-79
2021/07/22 07:04:57;;;;;;;9.03;5.87;;;22.40;99.90;;;;;;5076313;28;20421;-78
2021/07/22 07:07:22;;;;;;;10.03;6.50;;;22.50;99.90;;;;;;5075589;28;20569;-78
2021/07/22 07:09:48;;;;;;;8.47;5.80;;;22.60;99.90;;;;;;5075601;28;20212;-79
2021/07/22 07:12:14;;;;;;;10.67;6.03;;;22.60;99.90;;;;;;5073972;28;20227;-78
2021/07/22 07:14:40;;;;;;;8.30;5.30;;;22.40;99.90;;;;;;5057225;28;20263;-78
2021/07/22 07:17:05;;;;;;;10.50;5.97;;;22.40;99.90;;;;;;5075908;28;20182;-79
2021/07/22 07:19:31;;;;;;;7.90;5.83;;;22.30;99.90;;;;;;5075095;28;20172;-78
2021/07/22 07:21:56;;;;;;;11.00;6.37;;;22.60;99.90;;;;;;5074173;28;20542;-78
2021/07/22 07:24:22;;;;;;;9.20;5.77;;;22.70;99.90;;;;;;5075582;28;20262;-79
2021/07/22 07:26:47;;;;;;;8.73;6.70;;;22.60;99.90;;;;;;5075770;28;20267;-78
2021/07/22 07:29:13;;;;;;;7.87;5.40;;;22.60;99.90;;;;;;5041812;28;20206;-78
2021/07/22 07:31:40;;;;;;;6.57;4.97;;;22.90;99.90;;;;;;5074148;28;20187;-78
2021/07/22 07:34:05;;;;;;;7.97;5.30;;;23.10;99.90;;;;;;5075904;28;20187;-78
2021/07/22 07:36:31;;;;;;;8.63;6.27;;;22.90;99.90;;;;;;5076150;28;20452;-79
2021/07/22 07:38:57;;;;;;;8.37;5.80;;;23.20;99.90;;;;;;5076681;28;20172;-79
2021/07/22 07:41:22;;;;;;;8.63;5.83;;;23.40;99.90;;;;;;5072345;28;20559;-78
2021/07/22 07:43:47;;;;;;;10.10;5.83;;;23.70;99.90;;;;;;5065226;28;20746;-78
2021/07/22 07:46:13;;;;;;;9.77;6.27;;;23.90;99.90;;;;;;5076467;28;20179;-80
2021/07/22 07:48:39;;;;;;;8.10;5.70;;;24.10;99.90;;;;;;5056094;28;20219;-80
2021/07/22 07:51:08;;;;;;;8.80;6.17;;;24.00;99.90;;;;;;5056714;28;20230;-79
2021/07/22 07:53:34;;;;;;;8.53;4.97;;;23.60;99.90;;;;;;5057694;28;20224;-79
2021/07/22 07:56:02;;;;;;;11.63;5.70;;;23.60;99.90;;;;;;5058407;28;20422;-79
2021/07/22 07:58:27;;;;;;;7.67;4.70;;;23.40;99.90;;;;;;5075735;28;20418;-80
2021/07/22 08:00:53;;;;;;;7.30;5.70;;;23.30;99.90;;;;;;5057458;28;20414;-79
2021/07/22 08:03:20;;;;;;;7.60;5.70;;;23.30;99.90;;;;;;5074668;28;20191;-79
2021/07/22 08:05:50;;;;;;;6.87;5.07;;;23.20;99.90;;;;;;5039986;28;20525;-77
2021/07/22 08:08:16;;;;;;;9.83;5.90;;;23.30;99.90;;;;;;5075038;28;20410;-79
2021/07/22 08:10:42;;;;;;;9.10;6.10;;;23.60;99.90;;;;;;5056737;28;20980;-79
2021/07/22 08:13:08;;;;;;;6.60;5.47;;;23.60;99.90;;;;;;5072364;28;20196;-78
2021/07/22 08:15:34;;;;;;;8.27;5.40;;;23.60;99.90;;;;;;5073909;28;20182;-78
2021/07/22 08:18:00;;;;;;;8.30;5.50;;;23.60;99.90;;;;;;5073554;28;20495;-78
2021/07/22 08:20:25;;;;;;;10.83;5.93;;;23.40;99.90;;;;;;5055146;28;20176;-78
2021/07/22 08:22:51;;;;;;;6.23;4.80;;;23.40;99.90;;;;;;5054281;28;20212;-78
2021/07/22 08:25:19;;;;;;;6.73;5.47;;;23.40;99.90;;;;;;5073331;28;20211;-79
2021/07/22 08:27:45;;;;;;;8.57;5.47;;;23.70;99.90;;;;;;5074120;28;20179;-78
2021/07/22 08:30:11;;;;;;;11.40;6.00;;;23.80;99.90;;;;;;5077076;28;20462;-79
2021/07/22 08:32:37;;;;;;;12.73;6.20;;;23.80;99.90;;;;;;5042509;28;20448;-79
2021/07/22 08:35:03;;;;;;;8.10;5.27;;;23.50;99.90;;;;;;5077889;28;20434;-79
2021/07/22 08:37:28;;;;;;;10.77;6.37;;;23.30;99.90;;;;;;5060799;28;20176;-79
2021/07/22 08:39:57;;;;;;;9.10;5.23;;;23.40;99.90;;;;;;5082261;28;20183;-79
2021/07/22 08:42:26;;;;;;;7.10;4.90;;;23.40;99.90;;;;;;5060436;28;20636;-78
2021/07/22 08:44:53;;;;;;;8.13;5.23;;;23.50;99.90;;;;;;5071888;28;20423;-79
2021/07/22 08:47:18;;;;;;;9.87;5.67;;;23.70;99.90;;;;;;5041390;28;20466;-80
2021/07/22 08:49:44;;;;;;;8.40;5.50;;;23.80;99.90;;;;;;5070736;28;20472;-78
2021/07/22 08:52:11;;;;;;;9.70;5.70;;;24.10;99.90;;;;;;5077744;28;20203;-79
2021/07/22 08:54:38;;;;;;;11.23;5.90;;;24.10;99.90;;;;;;5060434;28;20176;-78
2021/07/22 08:57:09;;;;;;;8.70;5.93;;;24.00;99.90;;;;;;5078639;28;20411;-79
2021/07/22 08:59:35;;;;;;;7.93;5.30;;;23.90;99.90;;;;;;5059266;28;20461;-79
2021/07/22 09:02:01;;;;;;;8.43;5.03;;;23.90;99.90;;;;;;5058799;28;20443;-79
2021/07/22 09:04:28;;;;;;;8.90;6.13;;;24.00;99.90;;;;;;5041897;28;20193;-79
2021/07/22 09:06:54;;;;;;;8.53;5.80;;;23.90;99.90;;;;;;5060368;28;20465;-79
2021/07/22 09:09:20;;;;;;;7.60;5.43;;;23.90;99.90;;;;;;5040809;28;20454;-79
2021/07/22 09:11:52;;;;;;;7.57;5.83;;;23.80;99.90;;;;;;5058620;28;20925;-79
2021/07/22 09:14:18;;;;;;;6.80;5.10;;;23.80;99.90;;;;;;5058502;28;20195;-79
2021/07/22 09:16:43;;;;;;;7.00;5.20;;;23.60;99.90;;;;;;5067015;28;20418;-81
2021/07/22 09:19:33;;;;;;;9.20;5.43;;;23.50;99.90;;;;;;5075136;28;20253;-80
2021/07/22 09:21:59;;;;;;;11.07;4.90;;;23.50;99.90;;;;;;5057934;28;20218;-79
2021/07/22 09:24:24;;;;;;;9.30;5.37;;;23.50;99.90;;;;;;5059410;28;20502;-78
2021/07/22 09:26:53;;;;;;;6.60;5.03;;;23.60;99.90;;;;;;5070493;28;20415;-78
2021/07/22 09:29:19;;;;;;;7.83;4.80;;;23.50;99.90;;;;;;5055367;28;20203;-80
2021/07/22 09:31:52;;;;;;;7.63;5.40;;;23.40;99.90;;;;;;5042532;28;20418;-78
2021/07/22 09:34:26;;;;;;;9.60;5.13;;;23.40;99.90;;;;;;5057597;28;20597;-78
2021/07/22 09:36:52;;;;;;;6.97;4.80;;;23.50;99.90;;;;;;5073717;28;20406;-78
2021/07/22 09:39:19;;;;;;;8.03;5.50;;;23.50;99.90;;;;;;5069828;28;20426;-79
2021/07/22 09:41:55;;;;;;;7.03;5.10;;;23.60;99.90;;;;;;5074462;28;20407;-78
2021/07/22 09:44:45;;;;;;;7.00;4.47;;;23.80;99.90;;;;;;5061920;28;20457;-79
2021/07/22 09:47:11;;;;;;;8.93;5.33;;;24.20;99.90;;;;;;5054638;28;20431;-79
2021/07/22 09:49:38;;;;;;;6.97;5.23;;;24.40;99.90;;;;;;5055529;28;20569;-78
2021/07/22 09:52:16;;;;;;;5.30;3.90;;;24.40;99.90;;;;;;5057997;28;20203;-78
2021/07/22 09:54:41;;;;;;;7.00;4.83;;;24.50;99.90;;;;;;5066540;28;20426;-79
2021/07/22 09:57:20;;;;;;;6.73;4.43;;;24.80;99.90;;;;;;5058966;28;20433;-78
2021/07/22 09:59:48;;;;;;;8.03;5.40;;;24.70;99.90;;;;;;5077315;28;20709;-80
2021/07/22 10:02:20;;;;;;;6.60;5.07;;;24.50;99.90;;;;;;5058958;28;20446;-79
2021/07/22 10:04:54;;;;;;;6.50;4.93;;;24.40;99.90;;;;;;5077118;28;20509;-79
2021/07/22 10:07:21;;;;;;;10.40;5.00;;;24.50;99.90;;;;;;5058485;28;20426;-79
2021/07/22 10:09:53;;;;;;;8.43;4.80;;;24.50;99.90;;;;;;5059379;28;20809;-79
2021/07/22 10:12:20;;;;;;;7.47;4.67;;;24.30;99.90;;;;;;5076848;28;20461;-79
2021/07/22 10:14:56;;;;;;;6.63;4.80;;;24.10;99.90;;;;;;5053667;28;20414;-79
2021/07/22 10:17:26;;;;;;;8.77;5.70;;;23.90;99.90;;;;;;5077625;28;20951;-78
2021/07/22 10:19:55;;;;;;;7.13;4.80;;;23.90;99.90;;;;;;5075002;28;20410;-79
2021/07/22 10:22:22;;;;;;;8.93;6.57;;;23.90;99.90;;;;;;5055589;28;20945;-78
2021/07/22 10:24:51;;;;;;;5.57;4.30;;;24.00;99.90;;;;;;5060971;28;20454;-78
2021/07/22 10:27:17;;;;;;;11.37;6.43;;;23.80;99.90;;;;;;5066908;28;20442;-78
2021/07/22 10:29:44;;;;;;;10.57;6.30;;;23.70;99.90;;;;;;5074274;28;20460;-79
2021/07/22 10:32:10;;;;;;;9.03;5.20;;;23.70;99.90;;;;;;5074639;28;20762;-78
2021/07/22 10:34:37;;;;;;;8.63;5.23;;;23.70;99.90;;;;;;5065341;28;20416;-78
2021/07/22 10:37:03;;;;;;;10.00;6.40;;;23.80;99.90;;;;;;5055693;28;20215;-78
2021/07/22 10:40:09;;;;;;;9.40;5.13;;;23.90;99.90;;;;;;5038038;28;20411;-79
2021/07/22 10:42:51;;;;;;;8.07;5.73;;;23.90;99.90;;;;;;4955653;28;20207;-79
2021/07/22 10:45:19;;;;;;;7.73;5.60;;;23.80;99.90;;;;;;4974001;28;20422;-79
2021/07/22 10:48:09;;;;;;;8.90;5.57;;;23.50;99.90;;;;;;5022897;28;20864;-78
2021/07/22 10:50:37;;;;;;;9.73;5.87;;;23.20;99.90;;;;;;5054743;28;20538;-79
2021/07/22 10:53:04;;;;;;;6.13;4.77;;;23.20;99.90;;;;;;5055253;28;20518;-78
2021/07/22 10:55:42;;;;;;;6.47;4.43;;;23.10;99.90;;;;;;5076050;28;20471;-78
2021/07/22 10:58:29;;;;;;;7.40;5.63;;;23.10;99.90;;;;;;5075258;28;20414;-79
2021/07/22 11:00:55;;;;;;;8.17;5.63;;;23.10;99.90;;;;;;5056873;28;20414;-79
2021/07/22 11:03:35;;;;;;;9.20;5.67;;;23.10;99.90;;;;;;5075397;28;20505;-79
2021/07/22 11:06:09;;;;;;;8.90;5.23;;;23.00;99.90;;;;;;5058262;28;20190;-79
2021/07/22 11:08:38;;;;;;;11.57;6.10;;;23.00;99.90;;;;;;5076313;28;20464;-79
2021/07/22 11:11:08;;;;;;;7.50;5.47;;;22.90;99.90;;;;;;5075610;28;20560;-79
2021/07/22 11:13:37;;;;;;;10.07;6.27;;;22.90;99.90;;;;;;5076070;28;20955;-79
2021/07/22 11:16:05;;;;;;;7.70;5.07;;;22.70;99.90;;;;;;5076288;28;20463;-79
2021/07/22 11:18:39;;;;;;;8.60;5.77;;;22.60;99.90;;;;;;5076341;28;20493;-79
2021/07/22 11:21:06;;;;;;;9.23;5.77;;;22.50;99.90;;;;;;5074768;28;20496;-79
2021/07/22 11:23:32;;;;;;;11.33;5.03;;;22.40;99.90;;;;;;5075746;28;20457;-77
2021/07/22 11:25:58;;;;;;;8.30;5.60;;;22.30;99.90;;;;;;5074289;28;20778;-79
2021/07/22 11:28:25;;;;;;;8.00;6.23;;;22.30;99.90;;;;;;5075729;28;20414;-79
2021/07/22 11:31:08;;;;;;;9.47;5.67;;;22.30;99.90;;;;;;5074932;28;20199;-78
2021/07/22 11:33:38;;;;;;;8.50;5.40;;;22.40;99.90;;;;;;5075211;28;20530;-79
2021/07/22 11:36:06;;;;;;;10.60;6.00;;;22.40;99.90;;;;;;5075606;28;20406;-79
2021/07/22 11:38:34;;;;;;;8.10;5.23;;;22.50;99.90;;;;;;5075875;28;20410;-79
2021/07/22 11:41:00;;;;;;;10.23;6.37;;;22.60;99.90;;;;;;5074293;28;20476;-78
2021/07/22 11:43:38;;;;;;;8.33;5.73;;;22.60;99.90;;;;;;5068309;28;20537;-78
2021/07/22 11:46:05;;;;;;;9.17;6.17;;;22.70;99.90;;;;;;5073543;28;21141;-78
2021/07/22 11:48:31;;;;;;;10.10;5.50;;;22.70;99.90;;;;;;5074094;28;20434;-77
2021/07/22 11:51:06;;;;;;;9.20;6.20;;;22.80;99.90;;;;;;5053670;28;20472;-77
2021/07/22 11:53:32;;;;;;;14.77;6.87;;;22.80;99.90;;;;;;5072144;28;20195;-78
2021/07/22 11:56:19;;;;;;;9.20;6.93;;;22.70;99.90;;;;;;5071333;28;20422;-77
2021/07/22 11:58:50;;;;;;;7.77;5.80;;;22.60;99.90;;;;;;5041607;28;20437;-77
2021/07/22 12:01:16;;;;;;;9.87;6.00;;;22.60;99.90;;;;;;5070659;28;20943;-77
2021/07/22 12:03:46;;;;;;;9.87;6.40;;;22.60;99.90;;;;;;5071650;28;20940;-78
2021/07/22 12:06:13;;;;;;;10.30;5.97;;;22.60;99.90;;;;;;5057809;28;20983;-77
2021/07/22 12:08:39;;;;;;;10.13;6.50;;;22.60;99.90;;;;;;5074935;28;20535;-76
2021/07/22 12:11:04;;;;;;;10.63;7.00;;;22.70;99.90;;;;;;5076249;28;20466;-75
2021/07/22 12:13:47;;;;;;;12.03;6.67;;;22.70;99.90;;;;;;5075296;28;20486;-78
2021/07/22 12:16:12;;;;;;;5.97;5.00;;;22.80;99.90;;;;;;5071203;28;20236;-77
2021/07/22 12:18:38;;;;;;;9.87;6.53;;;22.80;99.90;;;;;;5078540;28;20513;-77
2021/07/22 12:21:04;;;;;;;10.17;7.20;;;22.80;99.90;;;;;;5075283;28;20188;-77
2021/07/22 12:23:33;;;;;;;9.07;6.70;;;22.80;99.90;;;;;;5074262;28;20446;-76
2021/07/22 12:26:04;;;;;;;8.63;5.80;;;22.70;99.90;;;;;;5074907;28;20199;-76
2021/07/22 12:28:31;;;;;;;10.00;6.37;;;22.80;99.90;;;;;;5073419;28;20532;-76
2021/07/22 12:31:14;;;;;;;8.73;5.50;;;22.80;99.90;;;;;;5073189;28;20506;-76
2021/07/22 12:33:39;;;;;;;8.90;6.33;;;22.90;99.90;;;;;;5054820;28;20441;-75
2021/07/22 12:36:19;;;;;;;10.17;5.83;;;22.90;99.90;;;;;;5055157;28;20498;-76
2021/07/22 12:38:44;;;;;;;10.10;5.80;;;23.00;99.90;;;;;;5054985;28;20172;-76
2021/07/22 12:41:15;;;;;;;12.00;6.50;;;23.00;99.90;;;;;;5036901;28;20427;-78
2021/07/22 12:43:49;;;;;;;8.67;5.97;;;23.20;99.90;;;;;;5054939;28;20203;-77